Time;durP1;ratioP1;P1;durP2;ratioP2;P2;SDS_P1;SDS_P2;PMS_P1;PMS_P2;Temp;Humidity;BMP_temperature;BMP_pressure;BME280_temperature;BME280_humidity;BME280_pressure;Samples;Min_cycle;Max_cycle;Signal;HPM_P1;HPM_P2
2022/12/19 00:01:17;;;;;;;26.63;11.90;;;0.20;99.90;;;;;;5097289;28;20043;-82
2022/12/19 00:03:54;;;;;;;27.00;12.90;;;1.40;99.90;;;;;;5077966;28;20044;-82
2022/12/19 00:06:20;;;;;;;26.10;11.57;;;0.40;99.90;;;;;;5073237;28;20049;-83
2022/12/19 00:08:51;;;;;;;23.23;11.07;;;0.40;99.90;;;;;;5064942;28;20159;-83
2022/12/19 00:11:21;;;;;;;26.13;11.67;;;0.40;99.90;;;;;;5061148;28;20039;-83
2022/12/19 00:13:49;;;;;;;26.37;11.13;;;0.50;99.90;;;;;;5079615;28;20059;-84
2022/12/19 00:16:21;;;;;;;24.63;11.30;;;2.30;99.90;;;;;;5098110;28;20122;-83
2022/12/19 00:18:49;;;;;;;24.00;10.90;;;0.00;99.90;;;;;;5080869;28;20047;-84
2022/12/19 00:21:17;;;;;;;20.23;10.70;;;0.60;99.90;;;;;;5066518;28;20399;-84
2022/12/19 00:23:44;;;;;;;22.77;12.20;;;1.50;99.90;;;;;;5073728;28;20043;-84
2022/12/19 00:26:10;;;;;;;27.03;11.00;;;1.80;99.90;;;;;;5047648;28;20430;-83
2022/12/19 00:28:36;;;;;;;26.93;11.43;;;0.60;99.90;;;;;;5097530;28;20173;-84
2022/12/19 00:31:02;;;;;;;26.30;11.63;;;0.60;99.90;;;;;;5080900;28;20487;-84
2022/12/19 00:33:28;;;;;;;22.27;11.17;;;0.60;99.90;;;;;;5078616;28;20043;-84
2022/12/19 00:36:06;;;;;;;27.10;11.00;;;0.60;99.90;;;;;;5080576;28;20058;-85
2022/12/19 00:38:45;;;;;;;28.30;11.77;;;0.70;99.90;;;;;;5100431;28;20393;-84
2022/12/19 00:41:21;;;;;;;23.63;10.00;;;1.80;99.90;;;;;;5060583;28;20036;-84
2022/12/19 00:43:55;;;;;;;29.20;11.63;;;1.60;99.90;;;;;;5081587;28;20086;-84
2022/12/19 00:46:27;;;;;;;;;;;0.70;99.90;;;;;;5080326;28;20058;-84
2022/12/19 00:48:53;;;;;;;21.80;12.10;;;1.70;99.90;;;;;;5093232;28;19927;-84
2022/12/19 00:51:24;;;;;;;23.43;10.70;;;0.80;99.90;;;;;;5113141;28;20058;-84
2022/12/19 00:53:59;;;;;;;25.83;11.93;;;2.30;99.90;;;;;;5080337;28;20043;-84
2022/12/19 00:56:29;;;;;;;29.70;11.40;;;0.70;99.90;;;;;;5092119;28;20036;-84
2022/12/19 00:58:57;;;;;;;24.43;10.30;;;0.80;99.90;;;;;;5059636;28;20525;-84
2022/12/19 01:01:26;;;;;;;24.80;11.23;;;1.70;99.90;;;;;;5062455;28;20055;-84
2022/12/19 01:03:56;;;;;;;25.63;12.57;;;2.60;99.90;;;;;;5060121;28;20040;-83
2022/12/19 01:06:22;;;;;;;23.67;12.37;;;2.60;99.90;;;;;;5050762;28;20047;-83
2022/12/19 01:08:47;;;;;;;24.37;11.67;;;0.90;99.90;;;;;;5076838;28;20043;-83
2022/12/19 01:11:16;;;;;;;26.87;10.93;;;1.70;99.90;;;;;;5072070;28;20089;-83
2022/12/19 01:13:42;;;;;;;30.47;12.07;;;1.20;99.90;;;;;;5096603;28;20405;-83
2022/12/19 01:16:12;;;;;;;27.30;11.57;;;1.10;99.90;;;;;;5062477;28;20035;-83
2022/12/19 01:18:39;;;;;;;25.80;10.90;;;1.00;99.90;;;;;;5096748;28;20092;-84
2022/12/19 01:21:10;;;;;;;26.30;11.60;;;1.10;99.90;;;;;;5079646;28;20039;-84
2022/12/19 01:23:36;;;;;;;29.67;11.90;;;0.20;99.90;;;;;;5079702;28;20043;-84
2022/12/19 01:26:05;;;;;;;29.73;12.17;;;1.00;99.90;;;;;;5073175;28;20113;-84
2022/12/19 01:28:31;;;;;;;25.20;9.83;;;2.40;99.90;;;;;;5070633;28;20040;-84
2022/12/19 01:30:57;;;;;;;27.17;11.93;;;2.20;99.90;;;;;;5062925;28;20123;-85
2022/12/19 01:33:23;;;;;;;31.23;12.23;;;4.20;99.90;;;;;;5079313;28;20130;-84
2022/12/19 01:35:49;;;;;;;29.10;11.90;;;;;;;;;;5079381;28;20035;-84
2022/12/19 01:38:19;;;;;;;29.83;12.60;;;1.30;99.90;;;;;;5078984;28;20039;-84
2022/12/19 01:40:53;;;;;;;30.30;11.23;;;2.70;99.90;;;;;;5093128;28;20524;-84
2022/12/19 01:43:20;;;;;;;23.43;10.87;;;2.70;99.90;;;;;;5061770;28;20039;-84
2022/12/19 01:45:52;;;;;;;26.60;10.60;;;1.20;99.90;;;;;;5059149;28;20473;-83
2022/12/19 01:48:34;;;;;;;27.57;11.73;;;1.20;99.90;;;;;;5077860;28;20067;-84
2022/12/19 01:51:27;;;;;;;26.10;12.33;;;1.20;99.90;;;;;;5093145;28;20370;-83
2022/12/19 01:54:02;;;;;;;24.93;11.07;;;2.20;99.90;;;;;;5075136;28;20052;-87
2022/12/19 01:56:35;;;;;;;29.67;13.10;;;1.50;99.90;;;;;;5059374;28;20167;-87
2022/12/19 01:59:06;;;;;;;25.27;11.93;;;2.00;99.90;;;;;;5071273;28;20043;-87
2022/12/19 02:01:33;;;;;;;28.43;11.53;;;1.10;99.90;;;;;;5079475;28;20500;-87
2022/12/19 02:04:01;;;;;;;29.47;11.37;;;3.20;99.90;;;;;;5070903;28;20096;-87
2022/12/19 02:06:31;;;;;;;26.20;11.40;;;0.20;99.90;;;;;;5062567;28;20385;-87
2022/12/19 02:09:03;;;;;;;25.80;12.10;;;3.10;99.90;;;;;;5076835;28;20515;-84
2022/12/19 02:11:30;;;;;;;26.50;11.07;;;;;;;;;;5079379;28;20047;-84
2022/12/19 02:13:56;;;;;;;28.53;12.73;;;1.20;99.90;;;;;;5075352;28;20394;-84
2022/12/19 02:16:53;;;;;;;26.63;12.67;;;1.20;99.90;;;;;;5055831;28;20395;-84
2022/12/19 02:19:37;;;;;;;32.13;11.93;;;1.30;99.90;;;;;;5075050;28;20093;-84
2022/12/19 02:22:19;;;;;;;33.30;12.93;;;1.30;99.90;;;;;;5055657;28;20136;-84
2022/12/19 02:25:13;;;;;;;26.63;13.40;;;1.20;99.90;;;;;;5055723;28;20456;-84
2022/12/19 02:28:05;;;;;;;29.07;11.77;;;1.30;99.90;;;;;;5075557;22;20051;-84
2022/12/19 02:30:44;;;;;;;27.90;11.93;;;1.30;99.90;;;;;;5095633;28;20039;-84
2022/12/19 02:33:18;;;;;;;26.73;12.17;;;1.30;99.90;;;;;;5097277;28;20031;-84
2022/12/19 02:35:52;;;;;;;29.00;12.17;;;1.30;99.90;;;;;;5095778;28;20074;-83
2022/12/19 02:38:54;;;;;;;25.60;12.87;;;2.90;99.90;;;;;;5095594;28;20400;-84
2022/12/19 02:41:47;;;;;;;25.63;12.00;;;1.40;99.90;;;;;;5067536;28;20049;-84
2022/12/19 02:44:39;;;;;;;26.57;11.90;;;1.50;99.90;;;;;;5079857;28;20048;-86
2022/12/19 02:47:12;;;;;;;22.87;11.67;;;1.40;99.90;;;;;;5095065;28;20119;-86
2022/12/19 02:49:38;;;;;;;30.63;13.20;;;-0.90;99.90;;;;;;5098593;28;20492;-86
2022/12/19 02:52:12;;;;;;;30.90;12.43;;;3.20;99.90;;;;;;5104352;27;20035;-86
2022/12/19 02:54:52;;;;;;;30.97;13.07;;;1.50;99.90;;;;;;5120076;27;20046;-86
2022/12/19 02:57:20;;;;;;;;;;;1.40;99.90;;;;;;5121025;27;20465;-86
2022/12/19 03:00:10;;;;;;;29.87;12.40;;;2.00;99.90;;;;;;5136683;27;19922;-86
2022/12/19 03:03:01;;;;;;;27.30;12.37;;;1.50;99.90;;;;;;5094566;28;20038;-86
2022/12/19 03:05:56;;;;;;;26.47;12.30;;;1.50;99.90;;;;;;5078789;28;20043;-86
2022/12/19 03:08:43;;;;;;;26.53;11.33;;;1.20;99.90;;;;;;5088652;28;20100;-87
2022/12/19 03:11:14;;;;;;;24.23;12.13;;;1.60;99.90;;;;;;5078450;28;20078;-87
2022/12/19 03:14:23;;;;;;;26.73;12.00;;;1.30;99.90;;;;;;5078853;28;20071;-86
2022/12/19 03:16:49;;;;;;;32.50;13.37;;;1.60;99.90;;;;;;4978321;28;20067;-83
2022/12/19 03:19:15;;;;;;;27.27;12.10;;;1.60;99.90;;;;;;4976780;28;20373;-84
2022/12/19 03:21:47;;;;;;;21.53;10.90;;;1.70;99.90;;;;;;5059616;27;20507;-84
2022/12/19 03:24:15;;;;;;;32.10;13.83;;;3.30;99.90;;;;;;5109269;28;20389;-84
2022/12/19 03:26:53;;;;;;;27.93;13.00;;;3.50;99.90;;;;;;5102530;27;20043;-84
2022/12/19 03:29:22;;;;;;;23.45;11.60;;;1.80;99.90;;;;;;5104525;27;20050;-84
2022/12/19 03:31:48;;;;;;;28.00;12.07;;;2.70;99.90;;;;;;5102782;27;20046;-84
2022/12/19 03:34:39;;;;;;;24.10;11.07;;;3.20;99.90;;;;;;5085973;27;20065;-83
2022/12/19 03:37:10;;;;;;;28.80;12.83;;;1.90;99.90;;;;;;5098926;28;20181;-83
2022/12/19 03:39:39;;;;;;;27.57;12.30;;;2.30;99.90;;;;;;5126753;27;20480;-83
2022/12/19 03:44:59;;;;;;;24.80;12.33;;;2.00;99.90;;;;;;5106233;27;20035;-83
2022/12/19 03:47:33;;;;;;;23.33;11.67;;;2.40;99.90;;;;;;5098753;28;20476;-83
2022/12/19 03:49:59;;;;;;;22.50;11.33;;;2.00;99.90;;;;;;5098457;28;20036;-83
2022/12/19 03:52:33;;;;;;;26.23;11.23;;;4.30;99.90;;;;;;5058452;28;20378;-83
2022/12/19 03:55:35;;;;;;;24.20;11.97;;;3.10;99.90;;;;;;5081817;28;20043;-82
2022/12/19 03:58:09;;;;;;;22.23;11.30;;;0.30;99.90;;;;;;5111276;28;20553;-82
2022/12/19 04:00:36;;;;;;;32.03;12.90;;;3.70;99.90;;;;;;5085632;27;20122;-82
2022/12/19 04:03:04;;;;;;;27.23;12.20;;;1.80;99.90;;;;;;5103538;28;20050;-82
2022/12/19 04:05:41;;;;;;;24.40;11.57;;;3.70;99.90;;;;;;5067158;28;20103;-83
2022/12/19 04:08:11;;;;;;;27.67;12.57;;;3.30;99.90;;;;;;5106285;27;20065;-83
2022/12/19 04:10:59;;;;;;;30.17;13.77;;;3.50;99.90;;;;;;5139275;27;20038;-83
2022/12/19 04:13:38;;;;;;;25.40;12.60;;;2.30;99.90;;;;;;5118225;27;20043;-83
2022/12/19 04:16:28;;;;;;;30.23;13.20;;;3.40;99.90;;;;;;5101646;27;20035;-83
2022/12/19 04:19:05;;;;;;;26.10;11.47;;;0.00;99.90;;;;;;5101574;27;20485;-83
2022/12/19 04:21:38;;;;;;;25.73;13.18;;;4.20;99.90;;;;;;5098725;27;20094;-83
2022/12/19 04:24:12;;;;;;;28.77;13.10;;;2.20;99.90;;;;;;5090278;27;20050;-83
2022/12/19 04:26:40;;;;;;;25.00;12.43;;;2.00;99.90;;;;;;5114916;28;20078;-83
2022/12/19 04:29:07;;;;;;;25.40;12.75;;;2.30;99.90;;;;;;5097503;28;20055;-83
2022/12/19 04:31:34;;;;;;;27.43;13.50;;;2.30;99.90;;;;;;5089651;28;20035;-83
2022/12/19 04:34:00;;;;;;;27.43;12.80;;;3.40;99.90;;;;;;5079260;28;20036;-83
2022/12/19 04:36:26;;;;;;;29.80;13.53;;;3.30;99.90;;;;;;5107319;27;20046;-83
2022/12/19 04:38:52;;;;;;;27.63;12.20;;;2.50;99.90;;;;;;5084134;27;20039;-83
2022/12/19 04:41:17;;;;;;;29.07;12.87;;;3.20;99.90;;;;;;5067410;27;20039;-83
2022/12/19 04:43:43;;;;;;;25.97;11.63;;;0.50;99.90;;;;;;5048961;28;20489;-83
2022/12/19 04:46:09;;;;;;;29.97;13.60;;;2.30;99.90;;;;;;5079902;28;20405;-83
2022/12/19 04:48:36;;;;;;;29.43;12.33;;;2.30;99.90;;;;;;5080623;28;20036;-83
2022/12/19 04:51:02;;;;;;;23.03;11.20;;;2.30;99.90;;;;;;5102095;27;20034;-83
2022/12/19 04:53:28;;;;;;;29.43;12.17;;;1.90;99.90;;;;;;5099861;27;20027;-83
2022/12/19 04:56:05;;;;;;;26.17;12.20;;;2.50;99.90;;;;;;5084058;27;20422;-83
2022/12/19 04:58:34;;;;;;;26.90;11.83;;;2.40;99.90;;;;;;5080397;28;20096;-86
2022/12/19 05:01:05;;;;;;;22.77;11.70;;;2.40;99.90;;;;;;5083870;27;20545;-86
2022/12/19 05:03:31;;;;;;;22.83;11.90;;;2.40;99.90;;;;;;5097353;27;20039;-86
2022/12/19 05:06:13;;;;;;;26.30;11.75;;;2.40;99.90;;;;;;5067572;27;20035;-86
2022/12/19 05:08:41;;;;;;;32.57;12.13;;;1.40;99.90;;;;;;5117522;27;20362;-86
2022/12/19 05:11:08;;;;;;;28.60;12.67;;;3.20;99.90;;;;;;5100471;27;20443;-87
2022/12/19 05:13:34;;;;;;;23.67;11.83;;;3.60;99.90;;;;;;5098733;28;20031;-84
2022/12/19 05:16:03;;;;;;;25.20;11.97;;;3.10;99.90;;;;;;5081583;28;20058;-83
2022/12/19 05:18:29;;;;;;;22.13;11.80;;;2.80;99.90;;;;;;5079842;28;20048;-83
2022/12/19 05:20:55;;;;;;;23.90;11.53;;;3.90;99.90;;;;;;5091421;28;20043;-84
2022/12/19 05:23:21;;;;;;;26.63;10.95;;;2.10;99.90;;;;;;5096914;28;20130;-83
2022/12/19 05:25:47;;;;;;;23.33;11.30;;;3.90;99.90;;;;;;5085953;28;20565;-83
2022/12/19 05:28:17;;;;;;;24.77;10.27;;;4.20;99.90;;;;;;5113830;27;20043;-83
2022/12/19 05:30:44;;;;;;;22.47;11.23;;;3.20;99.90;;;;;;5091266;27;20039;-82
2022/12/19 05:33:10;;;;;;;23.53;11.60;;;2.70;99.90;;;;;;5120260;27;20035;-82
2022/12/19 05:35:36;;;;;;;22.73;9.93;;;3.20;99.90;;;;;;5131308;27;20143;-82
2022/12/19 05:38:03;;;;;;;17.17;9.45;;;4.60;99.90;;;;;;5100163;27;20362;-82
2022/12/19 05:40:32;;;;;;;21.35;10.55;;;2.90;99.90;;;;;;5099892;27;20132;-82
2022/12/19 05:43:03;;;;;;;22.57;11.10;;;2.80;99.90;;;;;;5080957;27;20035;-82
2022/12/19 05:45:29;;;;;;;26.13;10.00;;;2.80;99.90;;;;;;5079472;28;20039;-83
2022/12/19 05:47:57;;;;;;;21.57;10.97;;;3.00;99.90;;;;;;5115885;27;20042;-83
2022/12/19 05:50:24;;;;;;;21.02;9.85;;;;;;;;;;5099869;27;20042;-83
2022/12/19 05:52:50;;;;;;;19.48;10.45;;;2.90;99.90;;;;;;5082349;28;20063;-83
2022/12/19 05:55:16;;;;;;;22.35;9.90;;;2.40;99.90;;;;;;5087479;27;20103;-82
2022/12/19 05:57:42;;;;;;;17.97;9.67;;;2.10;99.90;;;;;;5103768;28;20496;-83
2022/12/19 06:00:11;;;;;;;18.52;9.15;;;2.90;99.90;;;;;;5076597;27;20054;-82
2022/12/19 06:02:37;;;;;;;20.60;9.88;;;3.00;99.90;;;;;;5082400;27;20039;-83
2022/12/19 06:05:03;;;;;;;19.10;8.73;;;4.60;99.90;;;;;;5099222;27;20043;-83
2022/12/19 06:07:29;;;;;;;15.25;8.25;;;3.00;99.90;;;;;;5093677;28;20385;-83
2022/12/19 06:09:55;;;;;;;15.83;8.27;;;3.00;99.90;;;;;;5062763;28;20105;-83
2022/12/19 06:12:20;;;;;;;17.63;8.67;;;3.10;99.90;;;;;;5052484;28;20070;-83
2022/12/19 06:14:46;;;;;;;19.65;8.85;;;3.10;99.90;;;;;;5079110;28;20092;-83
2022/12/19 06:17:17;;;;;;;17.47;8.47;;;3.10;99.90;;;;;;5079560;27;20047;-83
2022/12/19 06:19:46;;;;;;;16.35;7.75;;;4.20;99.90;;;;;;5063298;28;20039;-85
2022/12/19 06:22:11;;;;;;;18.30;8.07;;;3.90;99.90;;;;;;5079073;28;20126;-86
2022/12/19 06:24:37;;;;;;;16.93;8.63;;;4.40;99.90;;;;;;5070825;28;20565;-86
2022/12/19 06:27:03;;;;;;;19.30;8.30;;;3.50;99.90;;;;;;5082445;28;20099;-85
2022/12/19 06:29:29;;;;;;;14.48;7.45;;;4.40;99.90;;;;;;5085486;28;20730;-86
2022/12/19 06:31:55;;;;;;;17.40;7.15;;;4.10;99.90;;;;;;5094632;28;20043;-86
2022/12/19 06:34:24;;;;;;;15.02;7.70;;;4.30;99.90;;;;;;5062120;28;20035;-86
2022/12/19 06:36:52;;;;;;;16.70;8.93;;;2.10;99.90;;;;;;5095882;28;20469;-82
2022/12/19 06:39:18;;;;;;;19.02;7.72;;;4.80;99.90;;;;;;5078170;28;20477;-82
2022/12/19 06:44:30;;;;;;;14.80;7.55;;;3.50;99.90;;;;;;5081427;28;20064;-82
2022/12/19 06:46:56;;;;;;;10.93;6.20;;;3.40;99.90;;;;;;5078834;28;20473;-82
2022/12/19 06:49:21;;;;;;;12.23;6.20;;;5.00;99.90;;;;;;5073387;28;20068;-82
2022/12/19 06:51:47;;;;;;;13.02;6.88;;;5.40;99.90;;;;;;5073838;28;20125;-82
2022/12/19 06:54:14;;;;;;;12.55;6.68;;;3.60;99.90;;;;;;5075626;28;20074;-82
2022/12/19 06:56:41;;;;;;;12.00;6.05;;;3.60;99.90;;;;;;5397735;22;20135;-82
2022/12/19 06:59:11;;;;;;;11.70;6.05;;;4.50;99.90;;;;;;5115371;27;20126;-82
2022/12/19 07:02:01;;;;;;;14.63;6.38;;;4.60;99.90;;;;;;5116305;27;20031;-82
2022/12/19 07:04:42;;;;;;;13.35;6.93;;;3.70;99.90;;;;;;5096944;27;20058;-82
2022/12/19 07:07:08;;;;;;;15.55;6.85;;;5.60;99.90;;;;;;5114144;27;20150;-82
2022/12/19 07:09:34;;;;;;;13.02;7.00;;;3.90;99.90;;;;;;5117789;27;20039;-82
2022/12/19 07:12:00;;;;;;;9.85;5.60;;;5.50;99.90;;;;;;5135726;27;20035;-82
2022/12/19 07:14:26;;;;;;;10.82;6.30;;;5.30;99.90;;;;;;5116975;27;20106;-82
2022/12/19 07:16:54;;;;;;;11.63;6.38;;;4.10;99.90;;;;;;5136990;27;20180;-82
2022/12/19 07:19:21;;;;;;;11.45;5.28;;;5.60;99.90;;;;;;5101965;27;20046;-82
2022/12/19 07:21:47;;;;;;;9.52;6.03;;;4.20;99.90;;;;;;5087584;28;20046;-82
2022/12/19 07:24:14;;;;;;;12.93;6.97;;;5.00;99.90;;;;;;5116972;27;20515;-82
2022/12/19 07:26:41;;;;;;;10.57;5.47;;;4.20;99.90;;;;;;5081568;27;20489;-82
2022/12/19 07:29:09;;;;;;;12.43;6.05;;;4.00;99.90;;;;;;5129435;27;20035;-82
2022/12/19 07:31:35;;;;;;;10.32;5.22;;;6.50;99.90;;;;;;5087826;27;20081;-83
2022/12/19 07:34:00;;;;;;;11.70;5.97;;;5.80;99.90;;;;;;5099665;27;20039;-83
2022/12/19 07:36:26;;;;;;;11.18;5.78;;;6.00;99.90;;;;;;5136443;27;20070;-83
2022/12/19 07:38:52;;;;;;;9.98;5.40;;;;;;;;;;5117718;27;20043;-83
2022/12/19 07:41:18;;;;;;;8.63;5.10;;;4.40;99.90;;;;;;5082170;27;20091;-83
2022/12/19 07:43:44;;;;;;;9.60;5.03;;;4.60;99.90;;;;;;5100447;27;20051;-83
2022/12/19 07:46:10;;;;;;;10.50;5.97;;;5.50;99.90;;;;;;5099094;27;20035;-83
2022/12/19 07:48:36;;;;;;;10.23;6.18;;;4.70;99.90;;;;;;5074953;27;20366;-88
2022/12/19 07:51:04;;;;;;;9.82;5.10;;;5.90;99.90;;;;;;5110465;27;20038;-88
2022/12/19 07:53:30;;;;;;;9.40;5.65;;;4.60;99.90;;;;;;5090934;27;20476;-88
2022/12/19 07:55:56;;;;;;;8.98;4.72;;;4.70;99.90;;;;;;5113640;27;20067;-88
2022/12/19 07:58:22;;;;;;;8.57;4.88;;;4.60;99.90;;;;;;5100509;27;20093;-88
2022/12/19 08:00:56;;;;;;;9.25;5.03;;;4.70;99.90;;;;;;5100570;27;20051;-88
2022/12/19 08:03:22;;;;;;;13.30;5.30;;;5.00;99.90;;;;;;5096500;27;20123;-83
2022/12/19 08:05:48;;;;;;;10.55;5.70;;;4.80;99.90;;;;;;5096153;27;20055;-83
2022/12/19 08:08:13;;;;;;;9.77;4.85;;;4.90;99.90;;;;;;5097665;27;20074;-83
2022/12/19 08:10:40;;;;;;;10.25;5.60;;;5.10;99.90;;;;;;5117276;27;20400;-83
2022/12/19 08:13:06;;;;;;;11.23;5.53;;;5.70;99.90;;;;;;5094359;27;20047;-82
2022/12/19 08:15:32;;;;;;;9.43;4.25;;;6.80;99.90;;;;;;5111525;27;20143;-83
2022/12/19 08:17:57;;;;;;;8.13;4.50;;;5.20;99.90;;;;;;5113039;27;20047;-83
2022/12/19 08:20:23;;;;;;;7.28;4.15;;;6.00;99.90;;;;;;5101065;27;20035;-83
2022/12/19 08:22:50;;;;;;;7.35;4.18;;;5.20;99.90;;;;;;5099875;27;21069;-82
2022/12/19 08:25:16;;;;;;;7.07;4.15;;;5.50;99.90;;;;;;5116996;27;20043;-83
2022/12/19 08:27:41;;;;;;;8.02;4.35;;;5.30;99.90;;;;;;5100888;27;20039;-83
2022/12/19 08:30:08;;;;;;;9.00;4.68;;;5.40;99.90;;;;;;5116654;27;20035;-83
2022/12/19 08:32:33;;;;;;;8.13;4.85;;;5.40;99.90;;;;;;5084035;27;20126;-82
2022/12/19 08:34:59;;;;;;;6.47;3.88;;;5.80;99.90;;;;;;5068111;28;20169;-81
2022/12/19 08:37:28;;;;;;;8.45;4.68;;;5.50;99.90;;;;;;5080086;28;20552;-86
2022/12/19 08:39:53;;;;;;;8.32;4.75;;;5.50;99.90;;;;;;5081117;28;20116;-88
2022/12/19 08:42:19;;;;;;;7.70;4.57;;;5.60;99.90;;;;;;5112907;27;20400;-88
2022/12/19 08:44:45;;;;;;;8.10;5.10;;;5.60;99.90;;;;;;5097551;27;20032;-87
2022/12/19 08:47:10;;;;;;;6.55;4.00;;;5.80;99.90;;;;;;5115198;27;20046;-87
2022/12/19 08:49:36;;;;;;;7.50;4.15;;;5.80;99.90;;;;;;5083494;27;20035;-87
2022/12/19 08:52:02;;;;;;;9.57;4.68;;;6.70;99.90;;;;;;5084083;27;20111;-87
2022/12/19 08:54:28;;;;;;;6.68;4.07;;;5.80;99.90;;;;;;5083669;27;20036;-87
2022/12/19 08:56:53;;;;;;;8.45;4.63;;;6.10;99.90;;;;;;5083062;27;20058;-87
2022/12/19 08:59:19;;;;;;;6.43;4.20;;;6.10;99.90;;;;;;5100713;27;20396;-87
2022/12/19 09:01:45;;;;;;;8.05;5.07;;;6.00;99.90;;;;;;5104652;28;20089;-87
2022/12/19 09:04:10;;;;;;;8.00;4.78;;;6.00;99.90;;;;;;5080776;28;20039;-87
2022/12/19 09:06:36;;;;;;;7.53;4.53;;;6.10;99.90;;;;;;5097067;28;20439;-87
2022/12/19 09:09:06;;;;;;;7.63;4.43;;;6.10;99.90;;;;;;5080164;28;20058;-87
2022/12/19 09:11:31;;;;;;;9.52;5.63;;;6.10;99.90;;;;;;5111358;27;20084;-83
2022/12/19 09:13:57;;;;;;;9.55;4.80;;;6.00;99.90;;;;;;5099868;27;20365;-83
2022/12/19 09:16:25;;;;;;;9.35;5.30;;;6.30;99.90;;;;;;5117041;27;20047;-83
2022/12/19 09:18:54;;;;;;;8.88;4.70;;;6.70;99.90;;;;;;5116841;27;20418;-83
2022/12/19 09:21:25;;;;;;;8.38;5.28;;;7.10;99.90;;;;;;5099807;27;20030;-82
2022/12/19 09:23:53;;;;;;;8.45;5.45;;;6.20;99.90;;;;;;5117000;27;20122;-83
2022/12/19 09:26:21;;;;;;;9.05;5.35;;;6.60;99.90;;;;;;5116318;27;20474;-82
2022/12/19 09:28:47;;;;;;;10.00;5.30;;;6.00;99.90;;;;;;5117160;27;20039;-87
2022/12/19 09:31:19;;;;;;;8.57;5.15;;;6.30;99.90;;;;;;5099923;27;20484;-87
2022/12/19 09:33:46;;;;;;;8.70;5.53;;;6.40;99.90;;;;;;5110541;28;20062;-86
2022/12/19 09:36:14;;;;;;;12.20;6.57;;;6.40;99.90;;;;;;5095160;27;20046;-87
2022/12/19 09:38:40;;;;;;;9.10;5.68;;;6.90;99.90;;;;;;5100295;27;20043;-86
2022/12/19 09:41:37;;;;;;;10.60;6.05;;;6.60;99.90;;;;;;5116868;27;20042;-87
2022/12/19 09:44:29;;;;;;;11.40;6.20;;;6.60;99.90;;;;;;5116787;27;20038;-84
2022/12/19 09:47:01;;;;;;;10.27;5.60;;;6.60;99.90;;;;;;5114580;27;20039;-84
2022/12/19 09:49:42;;;;;;;9.30;5.75;;;6.70;99.90;;;;;;5116682;27;20035;-84
2022/12/19 09:52:34;;;;;;;10.45;5.68;;;6.70;99.90;;;;;;5110734;27;20039;-83
2022/12/19 09:55:02;;;;;;;10.85;5.50;;;6.80;99.90;;;;;;5134038;27;20392;-83
2022/12/19 09:57:56;;;;;;;10.18;6.25;;;6.80;99.90;;;;;;5125938;27;20041;-80
2022/12/19 10:00:23;;;;;;;10.45;5.85;;;6.80;99.90;;;;;;5094912;27;20043;-81
2022/12/19 10:03:06;;;;;;;9.23;5.60;;;6.80;99.90;;;;;;5087410;28;20067;-81
2022/12/19 10:05:53;;;;;;;9.77;5.75;;;6.90;99.90;;;;;;5114014;27;20152;-81
2022/12/19 10:08:35;;;;;;;10.80;5.70;;;6.90;99.90;;;;;;5098211;27;20038;-81
2022/12/19 10:11:16;;;;;;;11.10;5.97;;;7.00;99.90;;;;;;5095692;27;20039;-81
2022/12/19 10:13:59;;;;;;;12.52;5.50;;;7.00;99.90;;;;;;5093645;27;20342;-81
2022/12/19 10:16:35;;;;;;;10.80;5.65;;;7.00;99.90;;;;;;5092531;27;20045;-85
2022/12/19 10:19:04;;;;;;;8.97;5.33;;;7.10;99.90;;;;;;5114915;27;20050;-86
2022/12/19 10:21:49;;;;;;;10.82;6.07;;;7.10;99.90;;;;;;5102670;28;20273;-86
2022/12/19 10:24:49;;;;;;;9.38;5.75;;;8.90;99.90;;;;;;5115494;27;20047;-86
2022/12/19 10:27:30;;;;;;;9.02;5.70;;;7.20;99.90;;;;;;5115643;28;20429;-86
2022/12/19 10:30:09;;;;;;;9.75;5.38;;;7.20;99.90;;;;;;5103810;28;20040;-86
2022/12/19 10:32:43;;;;;;;10.13;5.50;;;7.20;99.90;;;;;;5113690;28;20470;-86
2022/12/19 10:35:14;;;;;;;10.88;5.88;;;7.30;99.90;;;;;;5085534;28;20046;-83
2022/12/19 10:37:56;;;;;;;9.00;5.30;;;7.20;99.90;;;;;;5090846;28;20502;-83
2022/12/19 10:40:46;;;;;;;8.82;4.97;;;7.30;99.90;;;;;;5104640;28;20035;-83
2022/12/19 10:43:25;;;;;;;9.05;5.35;;;7.30;99.90;;;;;;5105221;28;20396;-83
2022/12/19 10:45:56;;;;;;;9.77;5.20;;;7.30;99.90;;;;;;5116078;28;20043;-83
2022/12/19 10:48:22;;;;;;;9.20;5.05;;;7.40;99.90;;;;;;5115498;28;20118;-83
2022/12/19 10:50:48;;;;;;;9.77;4.97;;;7.40;99.90;;;;;;5092876;28;20027;-81
2022/12/19 10:53:15;;;;;;;10.85;5.80;;;7.40;99.90;;;;;;5094718;28;20096;-81
2022/12/19 10:55:49;;;;;;;9.15;5.22;;;7.40;99.90;;;;;;5115081;28;20118;-81
2022/12/19 10:58:24;;;;;;;8.48;5.10;;;7.50;99.90;;;;;;5111781;28;20074;-81
2022/12/19 11:00:56;;;;;;;7.10;4.53;;;7.50;99.90;;;;;;5094472;28;20139;-81
2022/12/19 11:03:22;;;;;;;8.32;4.70;;;7.50;99.90;;;;;;5112233;28;20558;-81
2022/12/19 11:05:50;;;;;;;7.88;4.57;;;8.20;99.90;;;;;;5112072;28;20036;-81
2022/12/19 11:08:24;;;;;;;9.52;5.03;;;7.60;99.90;;;;;;5112743;28;20079;-86
2022/12/19 11:10:55;;;;;;;8.00;4.68;;;7.60;99.90;;;;;;5112368;28;20035;-86
2022/12/19 11:13:45;;;;;;;7.25;4.53;;;7.60;99.90;;;;;;5096058;28;20378;-86
2022/12/19 11:16:19;;;;;;;7.50;4.53;;;7.60;99.90;;;;;;5075634;28;20519;-86
2022/12/19 11:18:47;;;;;;;7.07;4.32;;;6.60;99.90;;;;;;5093510;28;20118;-86
2022/12/19 11:21:12;;;;;;;7.15;3.95;;;7.60;99.90;;;;;;5075545;28;20054;-86
2022/12/19 11:23:54;;;;;;;8.20;4.57;;;7.60;99.90;;;;;;5093121;28;20059;-81
2022/12/19 11:26:40;;;;;;;8.60;4.68;;;7.60;99.90;;;;;;5104636;28;20176;-81
2022/12/19 11:29:35;;;;;;;6.38;4.07;;;7.70;99.90;;;;;;5090623;28;20036;-81
2022/12/19 11:32:02;;;;;;;7.43;4.07;;;7.70;99.90;;;;;;5078306;28;20058;-81
2022/12/19 11:34:30;;;;;;;7.03;4.05;;;7.70;99.90;;;;;;5077702;28;20039;-81
2022/12/19 11:37:12;;;;;;;9.73;4.30;;;7.70;99.90;;;;;;5108892;28;20046;-81
2022/12/19 11:39:46;;;;;;;7.38;4.32;;;7.80;99.90;;;;;;5086366;28;20481;-81
2022/12/19 11:42:29;;;;;;;7.70;4.38;;;7.80;99.90;;;;;;5107766;28;20104;-81
2022/12/19 11:45:10;;;;;;;6.95;4.30;;;7.80;99.90;;;;;;5106108;28;20125;-81
2022/12/19 11:47:41;;;;;;;8.35;4.28;;;7.80;99.90;;;;;;5091993;28;20040;-81
2022/12/19 11:50:31;;;;;;;9.02;4.03;;;7.80;99.90;;;;;;5112727;28;20046;-82
2022/12/19 11:53:18;;;;;;;6.82;4.05;;;7.80;99.90;;;;;;5112777;28;20027;-81
2022/12/19 11:55:46;;;;;;;9.00;4.68;;;7.80;99.90;;;;;;5115417;28;20118;-81
2022/12/19 11:58:13;;;;;;;7.85;4.10;;;7.90;99.90;;;;;;5114459;28;20059;-83
2022/12/19 12:01:00;;;;;;;10.02;4.88;;;7.90;99.90;;;;;;5114912;28;20181;-83
2022/12/19 12:03:48;;;;;;;9.65;4.45;;;7.90;99.90;;;;;;5115619;28;20497;-83
2022/12/19 12:06:17;;;;;;;7.07;4.70;;;7.90;99.90;;;;;;5098569;28;20035;-83
2022/12/19 12:08:55;;;;;;;7.40;4.60;;;7.50;99.90;;;;;;5098524;28;20060;-83
2022/12/19 12:11:33;;;;;;;7.10;4.18;;;7.90;99.90;;;;;;5094764;28;20035;-83
2022/12/19 12:14:19;;;;;;;8.95;4.78;;;7.90;99.90;;;;;;5098555;28;20036;-82
2022/12/19 12:17:16;;;;;;;7.05;4.13;;;7.90;99.90;;;;;;5114756;28;20095;-81
2022/12/19 12:19:58;;;;;;;8.18;4.85;;;7.90;99.90;;;;;;5094561;28;20043;-81
2022/12/19 12:23:02;;;;;;;8.93;4.47;;;7.90;99.90;;;;;;5086155;28;20075;-81
2022/12/19 12:25:49;;;;;;;10.02;4.63;;;7.90;99.90;;;;;;5096799;28;20043;-83
2022/12/19 12:28:24;;;;;;;;;;;7.90;99.90;;;;;;5113093;28;20040;-83
2022/12/19 12:31:08;;;;;;;7.07;4.18;;;8.00;99.90;;;;;;5094504;28;20396;-86
2022/12/19 12:34:01;;;;;;;8.68;4.30;;;8.00;99.90;;;;;;5093057;28;20039;-85
2022/12/19 12:36:47;;;;;;;7.00;3.60;;;8.00;99.90;;;;;;5104526;28;20054;-85
2022/12/19 12:39:32;;;;;;;6.93;3.93;;;8.00;99.90;;;;;;5094809;28;20101;-85
2022/12/19 12:42:24;;;;;;;5.25;3.45;;;8.00;99.90;;;;;;5106687;28;20039;-85
2022/12/19 12:44:54;;;;;;;6.47;4.03;;;8.00;99.90;;;;;;5094916;28;20097;-85
2022/12/19 12:47:28;;;;;;;6.70;4.00;;;8.10;99.90;;;;;;5095661;28;20040;-83
2022/12/19 12:50:07;;;;;;;11.15;3.92;;;8.10;99.90;;;;;;5081961;28;20036;-83
2022/12/19 12:52:44;;;;;;;6.47;3.45;;;8.10;99.90;;;;;;5110687;28;20035;-82
2022/12/19 12:55:31;;;;;;;7.78;4.43;;;8.10;99.90;;;;;;5093061;28;20040;-82
2022/12/19 12:57:57;;;;;;;8.93;4.03;;;8.20;99.90;;;;;;5113668;28;20051;-81
2022/12/19 13:00:30;;;;;;;7.38;4.50;;;8.20;99.90;;;;;;5096168;28;20051;-82
2022/12/19 13:03:16;;;;;;;8.95;3.58;;;8.20;99.90;;;;;;5111533;28;20042;-82
2022/12/19 13:05:45;;;;;;;8.60;4.10;;;8.20;99.90;;;;;;5093691;28;20370;-85
2022/12/19 13:08:29;;;;;;;6.40;3.75;;;8.20;99.90;;;;;;5097841;28;20047;-85
2022/12/19 13:14:48;;;;;;;8.50;4.28;;;8.10;99.90;;;;;;5099157;28;20035;-85
2022/12/19 13:17:18;;;;;;;7.72;4.53;;;8.20;99.90;;;;;;5052440;28;20502;-84
2022/12/19 13:20:16;;;;;;;6.53;4.03;;;8.20;99.90;;;;;;5035318;28;20055;-87
2022/12/19 13:22:45;;;;;;;7.97;3.78;;;8.20;99.90;;;;;;5097990;27;20075;-88
2022/12/19 13:25:25;;;;;;;7.05;3.92;;;8.70;99.90;;;;;;5113230;28;20478;-87